sensor_id;sensor_type;location;lat;lon;timestamp;P1;durP1;ratioP1;P2;durP2;ratioP2
22935;SDS011;11633;42.716;23.312;2023-04-24T00:01:09;5.25;;;3.65;;
22935;SDS011;11633;42.716;23.312;2023-04-24T00:03:35;6.43;;;3.13;;
22935;SDS011;11633;42.716;23.312;2023-04-24T00:06:00;4.53;;;3.13;;
22935;SDS011;11633;42.716;23.312;2023-04-24T00:08:25;4.50;;;3.40;;
22935;SDS011;11633;42.716;23.312;2023-04-24T00:10:51;3.88;;;3.35;;
22935;SDS011;11633;42.716;23.312;2023-04-24T00:13:17;5.22;;;2.78;;
22935;SDS011;11633;42.716;23.312;2023-04-24T00:15:42;5.25;;;3.30;;
22935;SDS011;11633;42.716;23.312;2023-04-24T00:18:08;4.68;;;3.50;;
22935;SDS011;11633;42.716;23.312;2023-04-24T00:20:33;4.07;;;2.95;;
22935;SDS011;11633;42.716;23.312;2023-04-24T00:23:00;4.22;;;3.25;;
22935;SDS011;11633;42.716;23.312;2023-04-24T00:25:25;5.50;;;3.28;;
22935;SDS011;11633;42.716;23.312;2023-04-24T00:27:51;3.90;;;2.75;;
22935;SDS011;11633;42.716;23.312;2023-04-24T00:30:16;4.03;;;2.67;;
22935;SDS011;11633;42.716;23.312;2023-04-24T00:32:41;5.38;;;3.03;;
22935;SDS011;11633;42.716;23.312;2023-04-24T00:35:06;5.13;;;2.80;;
22935;SDS011;11633;42.716;23.312;2023-04-24T00:37:32;7.05;;;3.17;;
22935;SDS011;11633;42.716;23.312;2023-04-24T00:39:57;4.80;;;3.33;;
22935;SDS011;11633;42.716;23.312;2023-04-24T00:42:22;5.07;;;2.97;;
22935;SDS011;11633;42.716;23.312;2023-04-24T00:44:48;4.72;;;2.95;;
22935;SDS011;11633;42.716;23.312;2023-04-24T00:47:13;3.65;;;2.90;;
22935;SDS011;11633;42.716;23.312;2023-04-24T00:49:39;5.68;;;3.47;;
22935;SDS011;11633;42.716;23.312;2023-04-24T00:52:04;4.68;;;2.85;;
22935;SDS011;11633;42.716;23.312;2023-04-24T00:54:33;7.82;;;3.28;;
22935;SDS011;11633;42.716;23.312;2023-04-24T00:56:58;4.85;;;2.90;;
22935;SDS011;11633;42.716;23.312;2023-04-24T00:59:25;4.93;;;2.70;;
22935;SDS011;11633;42.716;23.312;2023-04-24T01:01:50;5.22;;;2.78;;
22935;SDS011;11633;42.716;23.312;2023-04-24T01:04:16;3.20;;;2.50;;
22935;SDS011;11633;42.716;23.312;2023-04-24T01:06:42;3.28;;;2.97;;
22935;SDS011;11633;42.716;23.312;2023-04-24T01:09:08;5.47;;;3.47;;
22935;SDS011;11633;42.716;23.312;2023-04-24T01:11:34;3.20;;;2.90;;
22935;SDS011;11633;42.716;23.312;2023-04-24T01:13:59;4.78;;;3.17;;
22935;SDS011;11633;42.716;23.312;2023-04-24T01:16:24;3.30;;;2.72;;
22935;SDS011;11633;42.716;23.312;2023-04-24T01:18:50;4.60;;;3.05;;
22935;SDS011;11633;42.716;23.312;2023-04-24T01:21:16;3.92;;;2.75;;
22935;SDS011;11633;42.716;23.312;2023-04-24T01:23:43;5.68;;;3.38;;
22935;SDS011;11633;42.716;23.312;2023-04-24T01:26:08;5.20;;;3.05;;
22935;SDS011;11633;42.716;23.312;2023-04-24T01:28:33;4.00;;;3.33;;
22935;SDS011;11633;42.716;23.312;2023-04-24T01:30:59;4.82;;;3.22;;
22935;SDS011;11633;42.716;23.312;2023-04-24T01:33:24;3.85;;;3.42;;
22935;SDS011;11633;42.716;23.312;2023-04-24T01:35:50;4.97;;;3.75;;
22935;SDS011;11633;42.716;23.312;2023-04-24T01:38:15;5.70;;;3.40;;
22935;SDS011;11633;42.716;23.312;2023-04-24T01:40:40;5.60;;;3.95;;
22935;SDS011;11633;42.716;23.312;2023-04-24T01:43:06;4.13;;;3.30;;
22935;SDS011;11633;42.716;23.312;2023-04-24T01:45:31;5.30;;;3.28;;
22935;SDS011;11633;42.716;23.312;2023-04-24T01:47:57;3.83;;;3.30;;
22935;SDS011;11633;42.716;23.312;2023-04-24T01:50:22;4.47;;;3.80;;
22935;SDS011;11633;42.716;23.312;2023-04-24T01:52:47;4.65;;;3.90;;
22935;SDS011;11633;42.716;23.312;2023-04-24T01:55:12;5.38;;;3.35;;
22935;SDS011;11633;42.716;23.312;2023-04-24T01:57:38;5.40;;;3.70;;
22935;SDS011;11633;42.716;23.312;2023-04-24T02:00:03;4.70;;;3.83;;
22935;SDS011;11633;42.716;23.312;2023-04-24T02:02:32;6.95;;;3.47;;
22935;SDS011;11633;42.716;23.312;2023-04-24T02:04:57;4.78;;;3.63;;
22935;SDS011;11633;42.716;23.312;2023-04-24T02:07:23;7.45;;;4.30;;
22935;SDS011;11633;42.716;23.312;2023-04-24T02:09:48;5.90;;;4.63;;
22935;SDS011;11633;42.716;23.312;2023-04-24T02:12:16;5.20;;;4.18;;
22935;SDS011;11633;42.716;23.312;2023-04-24T02:14:45;4.63;;;3.80;;
22935;SDS011;11633;42.716;23.312;2023-04-24T02:17:10;5.20;;;4.13;;
22935;SDS011;11633;42.716;23.312;2023-04-24T02:19:37;5.65;;;4.55;;
22935;SDS011;11633;42.716;23.312;2023-04-24T02:22:02;7.03;;;4.30;;
22935;SDS011;11633;42.716;23.312;2023-04-24T02:24:27;7.65;;;5.38;;
22935;SDS011;11633;42.716;23.312;2023-04-24T02:26:52;6.40;;;4.53;;
22935;SDS011;11633;42.716;23.312;2023-04-24T02:29:18;5.47;;;4.85;;
22935;SDS011;11633;42.716;23.312;2023-04-24T02:31:43;10.60;;;5.20;;
22935;SDS011;11633;42.716;23.312;2023-04-24T02:34:08;9.70;;;5.80;;
22935;SDS011;11633;42.716;23.312;2023-04-24T02:36:33;7.72;;;5.68;;
22935;SDS011;11633;42.716;23.312;2023-04-24T02:38:59;8.35;;;5.93;;
22935;SDS011;11633;42.716;23.312;2023-04-24T02:41:25;7.63;;;5.85;;
22935;SDS011;11633;42.716;23.312;2023-04-24T02:43:56;8.25;;;6.10;;
22935;SDS011;11633;42.716;23.312;2023-04-24T02:46:21;8.52;;;6.75;;
22935;SDS011;11633;42.716;23.312;2023-04-24T02:48:46;14.00;;;6.88;;
22935;SDS011;11633;42.716;23.312;2023-04-24T02:51:11;12.13;;;6.90;;
22935;SDS011;11633;42.716;23.312;2023-04-24T02:53:37;12.00;;;7.22;;
22935;SDS011;11633;42.716;23.312;2023-04-24T02:56:02;11.20;;;7.85;;
22935;SDS011;11633;42.716;23.312;2023-04-24T02:58:27;11.43;;;6.80;;
22935;SDS011;11633;42.716;23.312;2023-04-24T03:00:53;8.65;;;6.07;;
22935;SDS011;11633;42.716;23.312;2023-04-24T03:03:18;8.43;;;6.40;;
22935;SDS011;11633;42.716;23.312;2023-04-24T03:05:44;10.48;;;6.55;;
22935;SDS011;11633;42.716;23.312;2023-04-24T03:08:09;9.07;;;6.93;;
22935;SDS011;11633;42.716;23.312;2023-04-24T03:10:35;8.57;;;6.57;;
22935;SDS011;11633;42.716;23.312;2023-04-24T03:13:00;13.63;;;10.50;;
22935;SDS011;11633;42.716;23.312;2023-04-24T03:15:26;10.73;;;9.55;;
22935;SDS011;11633;42.716;23.312;2023-04-24T03:17:51;13.93;;;9.90;;
22935;SDS011;11633;42.716;23.312;2023-04-24T03:20:17;10.80;;;8.40;;
22935;SDS011;11633;42.716;23.312;2023-04-24T03:22:42;10.68;;;7.78;;
22935;SDS011;11633;42.716;23.312;2023-04-24T03:25:07;8.65;;;6.80;;
22935;SDS011;11633;42.716;23.312;2023-04-24T03:27:35;9.05;;;6.32;;
22935;SDS011;11633;42.716;23.312;2023-04-24T03:30:01;10.75;;;6.72;;
22935;SDS011;11633;42.716;23.312;2023-04-24T03:32:27;12.18;;;6.75;;
22935;SDS011;11633;42.716;23.312;2023-04-24T03:34:52;8.65;;;6.65;;
22935;SDS011;11633;42.716;23.312;2023-04-24T03:37:17;9.98;;;7.00;;
22935;SDS011;11633;42.716;23.312;2023-04-24T03:39:42;11.02;;;7.60;;
22935;SDS011;11633;42.716;23.312;2023-04-24T03:42:08;16.27;;;9.82;;
22935;SDS011;11633;42.716;23.312;2023-04-24T03:44:34;16.88;;;8.50;;
22935;SDS011;11633;42.716;23.312;2023-04-24T03:46:59;12.07;;;7.50;;
22935;SDS011;11633;42.716;23.312;2023-04-24T03:49:24;14.43;;;8.13;;
22935;SDS011;11633;42.716;23.312;2023-04-24T03:51:49;19.60;;;10.25;;
22935;SDS011;11633;42.716;23.312;2023-04-24T03:54:15;16.15;;;10.73;;
22935;SDS011;11633;42.716;23.312;2023-04-24T03:56:40;19.02;;;10.35;;
22935;SDS011;11633;42.716;23.312;2023-04-24T03:59:06;18.35;;;11.20;;
22935;SDS011;11633;42.716;23.312;2023-04-24T04:01:31;15.75;;;9.90;;
22935;SDS011;11633;42.716;23.312;2023-04-24T04:03:56;18.08;;;10.38;;
22935;SDS011;11633;42.716;23.312;2023-04-24T04:06:22;25.00;;;11.38;;
22935;SDS011;11633;42.716;23.312;2023-04-24T04:08:47;19.13;;;10.65;;
22935;SDS011;11633;42.716;23.312;2023-04-24T04:11:12;22.83;;;12.07;;
22935;SDS011;11633;42.716;23.312;2023-04-24T04:13:38;17.65;;;10.43;;
22935;SDS011;11633;42.716;23.312;2023-04-24T04:16:03;17.42;;;10.55;;
22935;SDS011;11633;42.716;23.312;2023-04-24T04:18:28;16.98;;;9.05;;
22935;SDS011;11633;42.716;23.312;2023-04-24T04:20:53;6.38;;;5.32;;
22935;SDS011;11633;42.716;23.312;2023-04-24T04:23:19;5.80;;;3.67;;
22935;SDS011;11633;42.716;23.312;2023-04-24T04:25:44;5.43;;;4.07;;
22935;SDS011;11633;42.716;23.312;2023-04-24T04:28:09;6.15;;;4.10;;
22935;SDS011;11633;42.716;23.312;2023-04-24T04:30:35;6.40;;;4.18;;
22935;SDS011;11633;42.716;23.312;2023-04-24T04:33:03;7.18;;;3.72;;
22935;SDS011;11633;42.716;23.312;2023-04-24T04:35:28;8.02;;;5.03;;
22935;SDS011;11633;42.716;23.312;2023-04-24T04:37:53;10.15;;;6.47;;
22935;SDS011;11633;42.716;23.312;2023-04-24T04:40:18;7.95;;;6.53;;
22935;SDS011;11633;42.716;23.312;2023-04-24T04:42:44;13.40;;;9.23;;
22935;SDS011;11633;42.716;23.312;2023-04-24T04:45:10;12.68;;;8.95;;
22935;SDS011;11633;42.716;23.312;2023-04-24T04:47:36;16.65;;;7.80;;
22935;SDS011;11633;42.716;23.312;2023-04-24T04:50:01;9.70;;;6.70;;
22935;SDS011;11633;42.716;23.312;2023-04-24T04:52:28;11.98;;;8.15;;
22935;SDS011;11633;42.716;23.312;2023-04-24T04:54:54;18.90;;;9.95;;
22935;SDS011;11633;42.716;23.312;2023-04-24T04:57:21;18.05;;;9.77;;
22935;SDS011;11633;42.716;23.312;2023-04-24T04:59:46;14.63;;;9.45;;
22935;SDS011;11633;42.716;23.312;2023-04-24T05:02:12;16.33;;;9.52;;
22935;SDS011;11633;42.716;23.312;2023-04-24T05:04:40;15.20;;;10.02;;
22935;SDS011;11633;42.716;23.312;2023-04-24T05:07:06;12.73;;;9.25;;
22935;SDS011;11633;42.716;23.312;2023-04-24T05:09:31;17.27;;;9.07;;
22935;SDS011;11633;42.716;23.312;2023-04-24T05:11:56;11.80;;;8.48;;
22935;SDS011;11633;42.716;23.312;2023-04-24T05:14:21;14.15;;;9.73;;
22935;SDS011;11633;42.716;23.312;2023-04-24T05:19:33;14.65;;;9.32;;
22935;SDS011;11633;42.716;23.312;2023-04-24T05:22:01;18.83;;;10.40;;
22935;SDS011;11633;42.716;23.312;2023-04-24T05:24:28;14.45;;;9.15;;
22935;SDS011;11633;42.716;23.312;2023-04-24T05:26:53;13.88;;;9.05;;
22935;SDS011;11633;42.716;23.312;2023-04-24T05:29:18;10.77;;;8.73;;
22935;SDS011;11633;42.716;23.312;2023-04-24T05:31:44;14.90;;;9.50;;
22935;SDS011;11633;42.716;23.312;2023-04-24T05:34:09;10.23;;;7.90;;
22935;SDS011;11633;42.716;23.312;2023-04-24T05:36:35;8.73;;;7.32;;
22935;SDS011;11633;42.716;23.312;2023-04-24T05:39:00;10.82;;;8.20;;
22935;SDS011;11633;42.716;23.312;2023-04-24T05:41:25;11.38;;;7.22;;
22935;SDS011;11633;42.716;23.312;2023-04-24T05:43:50;12.90;;;7.70;;
22935;SDS011;11633;42.716;23.312;2023-04-24T05:46:16;8.63;;;5.97;;
22935;SDS011;11633;42.716;23.312;2023-04-24T05:48:41;15.63;;;6.40;;
22935;SDS011;11633;42.716;23.312;2023-04-24T05:51:06;7.97;;;5.50;;
22935;SDS011;11633;42.716;23.312;2023-04-24T05:56:49;4.72;;;3.95;;
22935;SDS011;11633;42.716;23.312;2023-04-24T05:59:15;7.60;;;3.78;;
22935;SDS011;11633;42.716;23.312;2023-04-24T06:01:43;5.57;;;3.88;;
22935;SDS011;11633;42.716;23.312;2023-04-24T06:04:09;5.38;;;3.17;;
22935;SDS011;11633;42.716;23.312;2023-04-24T06:06:37;8.05;;;3.85;;
22935;SDS011;11633;42.716;23.312;2023-04-24T06:09:02;5.65;;;3.60;;
22935;SDS011;11633;42.716;23.312;2023-04-24T06:11:28;6.82;;;3.90;;
22935;SDS011;11633;42.716;23.312;2023-04-24T06:13:53;6.80;;;4.63;;
22935;SDS011;11633;42.716;23.312;2023-04-24T06:16:18;5.32;;;3.90;;
22935;SDS011;11633;42.716;23.312;2023-04-24T06:18:44;6.18;;;3.55;;
22935;SDS011;11633;42.716;23.312;2023-04-24T06:21:12;5.35;;;3.55;;
22935;SDS011;11633;42.716;23.312;2023-04-24T06:23:49;6.78;;;4.22;;
22935;SDS011;11633;42.716;23.312;2023-04-24T06:29:03;5.60;;;4.50;;
22935;SDS011;11633;42.716;23.312;2023-04-24T06:31:28;6.82;;;3.83;;
22935;SDS011;11633;42.716;23.312;2023-04-24T06:33:58;9.88;;;5.50;;
22935;SDS011;11633;42.716;23.312;2023-04-24T06:36:50;9.15;;;5.82;;
22935;SDS011;11633;42.716;23.312;2023-04-24T06:39:15;6.80;;;4.70;;
22935;SDS011;11633;42.716;23.312;2023-04-24T06:44:16;5.00;;;3.90;;
22935;SDS011;11633;42.716;23.312;2023-04-24T06:46:41;10.40;;;4.63;;
22935;SDS011;11633;42.716;23.312;2023-04-24T06:49:07;5.68;;;3.80;;
22935;SDS011;11633;42.716;23.312;2023-04-24T06:51:32;5.53;;;4.40;;
22935;SDS011;11633;42.716;23.312;2023-04-24T06:53:58;5.03;;;4.50;;
22935;SDS011;11633;42.716;23.312;2023-04-24T06:56:24;8.43;;;4.88;;
22935;SDS011;11633;42.716;23.312;2023-04-24T06:58:50;7.38;;;5.43;;
22935;SDS011;11633;42.716;23.312;2023-04-24T07:01:24;5.07;;;4.25;;
22935;SDS011;11633;42.716;23.312;2023-04-24T07:03:52;11.85;;;4.95;;
22935;SDS011;11633;42.716;23.312;2023-04-24T07:06:17;4.80;;;4.30;;
22935;SDS011;11633;42.716;23.312;2023-04-24T07:08:46;6.32;;;4.13;;
22935;SDS011;11633;42.716;23.312;2023-04-24T07:11:12;7.75;;;4.35;;
22935;SDS011;11633;42.716;23.312;2023-04-24T07:13:39;7.88;;;4.03;;
22935;SDS011;11633;42.716;23.312;2023-04-24T07:16:07;7.35;;;4.55;;
22935;SDS011;11633;42.716;23.312;2023-04-24T07:18:35;7.53;;;5.30;;
22935;SDS011;11633;42.716;23.312;2023-04-24T07:21:04;4.75;;;4.15;;
22935;SDS011;11633;42.716;23.312;2023-04-24T07:23:30;5.57;;;4.25;;
22935;SDS011;11633;42.716;23.312;2023-04-24T07:25:56;5.70;;;4.47;;
22935;SDS011;11633;42.716;23.312;2023-04-24T07:28:21;6.47;;;4.80;;
22935;SDS011;11633;42.716;23.312;2023-04-24T07:30:46;6.57;;;4.85;;
22935;SDS011;11633;42.716;23.312;2023-04-24T07:33:12;6.65;;;4.80;;
22935;SDS011;11633;42.716;23.312;2023-04-24T07:35:38;7.28;;;5.20;;
22935;SDS011;11633;42.716;23.312;2023-04-24T07:38:03;8.10;;;5.30;;
22935;SDS011;11633;42.716;23.312;2023-04-24T07:40:28;6.00;;;4.88;;
22935;SDS011;11633;42.716;23.312;2023-04-24T07:42:54;8.45;;;5.18;;
22935;SDS011;11633;42.716;23.312;2023-04-24T07:45:22;7.82;;;5.00;;
22935;SDS011;11633;42.716;23.312;2023-04-24T07:47:49;8.27;;;4.88;;
22935;SDS011;11633;42.716;23.312;2023-04-24T07:50:15;7.80;;;4.47;;
22935;SDS011;11633;42.716;23.312;2023-04-24T07:52:41;6.55;;;4.50;;
22935;SDS011;11633;42.716;23.312;2023-04-24T07:55:06;5.80;;;4.70;;
22935;SDS011;11633;42.716;23.312;2023-04-24T07:57:32;6.07;;;4.25;;
22935;SDS011;11633;42.716;23.312;2023-04-24T07:59:57;5.13;;;3.83;;
22935;SDS011;11633;42.716;23.312;2023-04-24T08:02:22;4.85;;;4.40;;
22935;SDS011;11633;42.716;23.312;2023-04-24T08:04:51;6.03;;;4.30;;
22935;SDS011;11633;42.716;23.312;2023-04-24T08:07:17;8.00;;;4.45;;
22935;SDS011;11633;42.716;23.312;2023-04-24T08:09:42;4.65;;;3.80;;
22935;SDS011;11633;42.716;23.312;2023-04-24T08:12:07;4.45;;;3.85;;
22935;SDS011;11633;42.716;23.312;2023-04-24T08:14:33;8.20;;;5.45;;
22935;SDS011;11633;42.716;23.312;2023-04-24T08:16:58;4.53;;;4.07;;
22935;SDS011;11633;42.716;23.312;2023-04-24T08:19:25;4.78;;;3.78;;
22935;SDS011;11633;42.716;23.312;2023-04-24T08:21:50;6.68;;;5.28;;
22935;SDS011;11633;42.716;23.312;2023-04-24T08:24:16;6.22;;;4.18;;
22935;SDS011;11633;42.716;23.312;2023-04-24T08:26:41;6.10;;;4.20;;
22935;SDS011;11633;42.716;23.312;2023-04-24T08:29:06;4.95;;;3.63;;
22935;SDS011;11633;42.716;23.312;2023-04-24T08:31:31;5.68;;;4.07;;
22935;SDS011;11633;42.716;23.312;2023-04-24T08:33:57;5.32;;;3.90;;
22935;SDS011;11633;42.716;23.312;2023-04-24T08:36:22;5.38;;;3.97;;
22935;SDS011;11633;42.716;23.312;2023-04-24T08:38:48;4.15;;;3.65;;
22935;SDS011;11633;42.716;23.312;2023-04-24T08:41:14;6.10;;;3.80;;
22935;SDS011;11633;42.716;23.312;2023-04-24T08:43:39;4.90;;;4.00;;
22935;SDS011;11633;42.716;23.312;2023-04-24T08:46:05;5.07;;;3.90;;
22935;SDS011;11633;42.716;23.312;2023-04-24T08:48:31;5.25;;;3.88;;
22935;SDS011;11633;42.716;23.312;2023-04-24T08:50:56;5.43;;;3.92;;
22935;SDS011;11633;42.716;23.312;2023-04-24T08:53:22;6.57;;;3.80;;
22935;SDS011;11633;42.716;23.312;2023-04-24T08:55:48;7.88;;;4.15;;
22935;SDS011;11633;42.716;23.312;2023-04-24T08:58:15;4.82;;;3.95;;
22935;SDS011;11633;42.716;23.312;2023-04-24T09:00:41;4.95;;;4.38;;
22935;SDS011;11633;42.716;23.312;2023-04-24T09:03:11;5.35;;;4.00;;
22935;SDS011;11633;42.716;23.312;2023-04-24T09:05:37;7.20;;;4.43;;
22935;SDS011;11633;42.716;23.312;2023-04-24T09:08:03;6.95;;;4.30;;
22935;SDS011;11633;42.716;23.312;2023-04-24T09:10:29;6.00;;;4.63;;
22935;SDS011;11633;42.716;23.312;2023-04-24T09:12:55;9.15;;;4.20;;
22935;SDS011;11633;42.716;23.312;2023-04-24T09:15:21;7.72;;;4.80;;
22935;SDS011;11633;42.716;23.312;2023-04-24T09:17:46;5.88;;;4.20;;
22935;SDS011;11633;42.716;23.312;2023-04-24T09:20:12;6.10;;;4.18;;
22935;SDS011;11633;42.716;23.312;2023-04-24T09:22:37;7.78;;;4.30;;
22935;SDS011;11633;42.716;23.312;2023-04-24T09:25:04;6.93;;;4.05;;
22935;SDS011;11633;42.716;23.312;2023-04-24T09:27:31;10.00;;;3.90;;
22935;SDS011;11633;42.716;23.312;2023-04-24T09:29:57;5.18;;;3.78;;
22935;SDS011;11633;42.716;23.312;2023-04-24T09:32:23;4.32;;;3.35;;
22935;SDS011;11633;42.716;23.312;2023-04-24T09:35:04;4.30;;;3.13;;
22935;SDS011;11633;42.716;23.312;2023-04-24T09:37:29;5.07;;;3.35;;
22935;SDS011;11633;42.716;23.312;2023-04-24T09:40:16;6.43;;;3.15;;
22935;SDS011;11633;42.716;23.312;2023-04-24T09:42:43;4.10;;;3.30;;
22935;SDS011;11633;42.716;23.312;2023-04-24T09:45:09;4.97;;;2.90;;
22935;SDS011;11633;42.716;23.312;2023-04-24T09:47:40;3.70;;;3.30;;
22935;SDS011;11633;42.716;23.312;2023-04-24T09:50:09;5.40;;;3.72;;
22935;SDS011;11633;42.716;23.312;2023-04-24T09:52:34;3.95;;;3.25;;
22935;SDS011;11633;42.716;23.312;2023-04-24T09:55:00;5.45;;;3.72;;
22935;SDS011;11633;42.716;23.312;2023-04-24T09:57:25;5.13;;;3.50;;
22935;SDS011;11633;42.716;23.312;2023-04-24T09:59:50;3.80;;;3.50;;
22935;SDS011;11633;42.716;23.312;2023-04-24T10:02:18;4.15;;;3.47;;
22935;SDS011;11633;42.716;23.312;2023-04-24T10:04:53;4.22;;;3.15;;
22935;SDS011;11633;42.716;23.312;2023-04-24T10:07:19;5.05;;;3.40;;
22935;SDS011;11633;42.716;23.312;2023-04-24T10:09:44;3.78;;;3.15;;
22935;SDS011;11633;42.716;23.312;2023-04-24T10:12:10;3.42;;;3.10;;
22935;SDS011;11633;42.716;23.312;2023-04-24T10:14:35;5.30;;;3.03;;
22935;SDS011;11633;42.716;23.312;2023-04-24T10:17:01;5.03;;;3.67;;
22935;SDS011;11633;42.716;23.312;2023-04-24T10:19:26;5.85;;;3.30;;
22935;SDS011;11633;42.716;23.312;2023-04-24T10:21:52;5.05;;;3.20;;
22935;SDS011;11633;42.716;23.312;2023-04-24T10:24:18;5.10;;;4.28;;
22935;SDS011;11633;42.716;23.312;2023-04-24T10:26:44;4.13;;;3.08;;
22935;SDS011;11633;42.716;23.312;2023-04-24T10:29:10;5.00;;;3.30;;
22935;SDS011;11633;42.716;23.312;2023-04-24T10:31:37;3.20;;;2.90;;
22935;SDS011;11633;42.716;23.312;2023-04-24T10:34:04;6.18;;;3.60;;
22935;SDS011;11633;42.716;23.312;2023-04-24T10:36:30;3.78;;;3.33;;
22935;SDS011;11633;42.716;23.312;2023-04-24T10:38:57;4.28;;;3.28;;
22935;SDS011;11633;42.716;23.312;2023-04-24T10:41:25;4.50;;;3.45;;
22935;SDS011;11633;42.716;23.312;2023-04-24T10:46:38;4.40;;;3.08;;
22935;SDS011;11633;42.716;23.312;2023-04-24T10:49:04;4.18;;;3.78;;
22935;SDS011;11633;42.716;23.312;2023-04-24T10:51:53;9.13;;;3.75;;
22935;SDS011;11633;42.716;23.312;2023-04-24T10:56:50;4.45;;;3.25;;
22935;SDS011;11633;42.716;23.312;2023-04-24T10:59:23;3.10;;;2.80;;
22935;SDS011;11633;42.716;23.312;2023-04-24T11:01:52;6.90;;;4.60;;
22935;SDS011;11633;42.716;23.312;2023-04-24T11:04:22;4.38;;;3.33;;
22935;SDS011;11633;42.716;23.312;2023-04-24T11:06:53;5.00;;;3.40;;
22935;SDS011;11633;42.716;23.312;2023-04-24T11:09:18;3.75;;;3.00;;
22935;SDS011;11633;42.716;23.312;2023-04-24T11:11:46;5.28;;;3.85;;
22935;SDS011;11633;42.716;23.312;2023-04-24T11:14:14;6.50;;;3.17;;
22935;SDS011;11633;42.716;23.312;2023-04-24T11:16:52;3.60;;;2.33;;
22935;SDS011;11633;42.716;23.312;2023-04-24T11:19:23;7.90;;;3.70;;
22935;SDS011;11633;42.716;23.312;2023-04-24T11:35:04;9.50;;;3.72;;
22935;SDS011;11633;42.716;23.312;2023-04-24T11:37:37;8.32;;;4.53;;
22935;SDS011;11633;42.716;23.312;2023-04-24T11:40:03;7.32;;;4.20;;
22935;SDS011;11633;42.716;23.312;2023-04-24T11:42:33;5.10;;;4.60;;
22935;SDS011;11633;42.716;23.312;2023-04-24T11:44:58;6.65;;;4.07;;
22935;SDS011;11633;42.716;23.312;2023-04-24T11:47:31;3.78;;;3.47;;
22935;SDS011;11633;42.716;23.312;2023-04-24T11:49:58;6.20;;;4.10;;
22935;SDS011;11633;42.716;23.312;2023-04-24T11:52:24;4.45;;;2.95;;
22935;SDS011;11633;42.716;23.312;2023-04-24T11:54:50;6.45;;;3.20;;
22935;SDS011;11633;42.716;23.312;2023-04-24T11:57:15;8.98;;;3.30;;
22935;SDS011;11633;42.716;23.312;2023-04-24T11:59:40;3.20;;;2.80;;
22935;SDS011;11633;42.716;23.312;2023-04-24T12:02:06;3.40;;;2.90;;
22935;SDS011;11633;42.716;23.312;2023-04-24T12:04:41;3.40;;;3.10;;
22935;SDS011;11633;42.716;23.312;2023-04-24T12:07:06;5.60;;;2.70;;
22935;SDS011;11633;42.716;23.312;2023-04-24T12:10:06;4.13;;;3.58;;
22935;SDS011;11633;42.716;23.312;2023-04-24T12:12:26;6.00;;;3.05;;
22935;SDS011;11633;42.716;23.312;2023-04-24T12:14:57;2.75;;;2.55;;
22935;SDS011;11633;42.716;23.312;2023-04-24T12:17:24;4.25;;;2.20;;
22935;SDS011;11633;42.716;23.312;2023-04-24T12:19:49;3.05;;;2.75;;
22935;SDS011;11633;42.716;23.312;2023-04-24T12:22:15;4.72;;;3.53;;
22935;SDS011;11633;42.716;23.312;2023-04-24T12:24:56;3.00;;;2.58;;
22935;SDS011;11633;42.716;23.312;2023-04-24T12:27:22;6.85;;;3.22;;
22935;SDS011;11633;42.716;23.312;2023-04-24T12:29:55;3.17;;;2.80;;
22935;SDS011;11633;42.716;23.312;2023-04-24T12:32:20;3.42;;;3.08;;
22935;SDS011;11633;42.716;23.312;2023-04-24T12:34:46;6.47;;;3.13;;
22935;SDS011;11633;42.716;23.312;2023-04-24T12:37:11;6.32;;;4.30;;
22935;SDS011;11633;42.716;23.312;2023-04-24T12:39:38;4.70;;;2.90;;
22935;SDS011;11633;42.716;23.312;2023-04-24T12:42:03;4.40;;;2.55;;
22935;SDS011;11633;42.716;23.312;2023-04-24T12:44:32;5.10;;;3.40;;
22935;SDS011;11633;42.716;23.312;2023-04-24T12:46:59;6.85;;;3.55;;
22935;SDS011;11633;42.716;23.312;2023-04-24T12:49:24;3.08;;;2.78;;
22935;SDS011;11633;42.716;23.312;2023-04-24T12:51:49;3.08;;;2.78;;
22935;SDS011;11633;42.716;23.312;2023-04-24T12:54:15;3.65;;;3.10;;
22935;SDS011;11633;42.716;23.312;2023-04-24T12:56:40;4.95;;;3.20;;
22935;SDS011;11633;42.716;23.312;2023-04-24T12:59:05;4.65;;;2.33;;
22935;SDS011;11633;42.716;23.312;2023-04-24T13:01:31;3.88;;;2.67;;
22935;SDS011;11633;42.716;23.312;2023-04-24T13:03:56;4.68;;;3.05;;
22935;SDS011;11633;42.716;23.312;2023-04-24T13:06:21;4.18;;;2.92;;
22935;SDS011;11633;42.716;23.312;2023-04-24T13:08:46;3.65;;;2.85;;
22935;SDS011;11633;42.716;23.312;2023-04-24T13:11:13;2.47;;;2.28;;
22935;SDS011;11633;42.716;23.312;2023-04-24T13:13:38;3.85;;;3.10;;
22935;SDS011;11633;42.716;23.312;2023-04-24T13:16:04;3.28;;;2.97;;
22935;SDS011;11633;42.716;23.312;2023-04-24T13:18:29;4.25;;;3.85;;
22935;SDS011;11633;42.716;23.312;2023-04-24T13:20:55;8.07;;;6.07;;
22935;SDS011;11633;42.716;23.312;2023-04-24T13:23:20;3.58;;;3.22;;
22935;SDS011;11633;42.716;23.312;2023-04-24T13:25:45;4.55;;;2.83;;
22935;SDS011;11633;42.716;23.312;2023-04-24T13:28:10;4.50;;;3.00;;
22935;SDS011;11633;42.716;23.312;2023-04-24T13:30:36;4.38;;;2.80;;
22935;SDS011;11633;42.716;23.312;2023-04-24T13:33:01;3.15;;;2.85;;
22935;SDS011;11633;42.716;23.312;2023-04-24T13:35:27;3.38;;;2.97;;
22935;SDS011;11633;42.716;23.312;2023-04-24T13:37:52;5.00;;;3.13;;
22935;SDS011;11633;42.716;23.312;2023-04-24T13:40:17;3.58;;;2.55;;
22935;SDS011;11633;42.716;23.312;2023-04-24T13:42:42;7.32;;;3.90;;
22935;SDS011;11633;42.716;23.312;2023-04-24T13:45:08;3.92;;;2.85;;
22935;SDS011;11633;42.716;23.312;2023-04-24T13:47:33;3.70;;;2.97;;
22935;SDS011;11633;42.716;23.312;2023-04-24T13:49:59;2.70;;;2.50;;
22935;SDS011;11633;42.716;23.312;2023-04-24T13:52:24;6.95;;;3.03;;
22935;SDS011;11633;42.716;23.312;2023-04-24T13:54:49;2.95;;;2.75;;
22935;SDS011;11633;42.716;23.312;2023-04-24T13:57:15;5.28;;;2.60;;
22935;SDS011;11633;42.716;23.312;2023-04-24T13:59:41;3.47;;;2.60;;
22935;SDS011;11633;42.716;23.312;2023-04-24T14:02:06;2.85;;;2.45;;
22935;SDS011;11633;42.716;23.312;2023-04-24T14:04:31;4.28;;;2.72;;
22935;SDS011;11633;42.716;23.312;2023-04-24T14:06:56;3.13;;;2.55;;
22935;SDS011;11633;42.716;23.312;2023-04-24T14:09:22;4.40;;;2.47;;
22935;SDS011;11633;42.716;23.312;2023-04-24T14:11:47;2.75;;;2.53;;
22935;SDS011;11633;42.716;23.312;2023-04-24T14:14:13;2.40;;;2.20;;
22935;SDS011;11633;42.716;23.312;2023-04-24T14:16:38;3.00;;;2.28;;
22935;SDS011;11633;42.716;23.312;2023-04-24T14:19:03;3.10;;;2.30;;
22935;SDS011;11633;42.716;23.312;2023-04-24T14:21:30;2.83;;;2.33;;
22935;SDS011;11633;42.716;23.312;2023-04-24T14:23:56;4.32;;;2.60;;
22935;SDS011;11633;42.716;23.312;2023-04-24T14:26:21;4.10;;;2.33;;
22935;SDS011;11633;42.716;23.312;2023-04-24T14:28:46;5.18;;;2.50;;
22935;SDS011;11633;42.716;23.312;2023-04-24T14:31:11;2.80;;;2.45;;
22935;SDS011;11633;42.716;23.312;2023-04-24T14:33:37;2.75;;;2.55;;
22935;SDS011;11633;42.716;23.312;2023-04-24T14:36:02;2.38;;;2.17;;
22935;SDS011;11633;42.716;23.312;2023-04-24T14:38:29;4.70;;;2.33;;
22935;SDS011;11633;42.716;23.312;2023-04-24T14:40:56;4.20;;;2.80;;
22935;SDS011;11633;42.716;23.312;2023-04-24T14:43:21;3.05;;;2.75;;
22935;SDS011;11633;42.716;23.312;2023-04-24T14:45:46;6.30;;;2.97;;
22935;SDS011;11633;42.716;23.312;2023-04-24T14:48:12;2.60;;;2.22;;
22935;SDS011;11633;42.716;23.312;2023-04-24T14:50:37;3.50;;;2.42;;
22935;SDS011;11633;42.716;23.312;2023-04-24T14:53:02;2.70;;;2.35;;
22935;SDS011;11633;42.716;23.312;2023-04-24T14:55:29;3.45;;;2.50;;